createdAt,value
2022-09-01T00:00:38.395Z,102370.53
2022-09-01T00:03:11.040Z,102366.34
2022-09-01T00:05:44.626Z,102372.47
2022-09-01T00:08:18.466Z,102371.81
2022-09-01T00:10:50.971Z,102357.50
2022-09-01T00:13:22.868Z,102363.34
2022-09-01T00:15:54.762Z,102354.91
2022-09-01T00:18:26.809Z,102355.72
2022-09-01T00:20:59.790Z,102359.88
2022-09-01T00:23:31.767Z,102351.22
2022-09-01T00:26:04.355Z,102358.16
2022-09-01T00:28:37.774Z,102357.50
2022-09-01T00:31:11.247Z,102363.16
2022-09-01T00:33:43.324Z,102357.19
2022-09-01T00:36:16.809Z,102352.97
2022-09-01T00:38:50.037Z,102355.47
2022-09-01T00:41:25.175Z,102348.69
2022-09-01T00:44:06.036Z,102352.28
2022-09-01T00:46:49.500Z,102354.19
2022-09-01T00:49:31.651Z,102353.31
2022-09-01T00:52:11.359Z,102349.06
2022-09-01T00:54:50.466Z,102352.84
2022-09-01T00:57:22.900Z,102352.03
2022-09-01T00:59:57.694Z,102341.91
2022-09-01T01:02:29.780Z,102339.81
2022-09-01T01:05:03.205Z,102344.91
2022-09-01T01:07:38.933Z,102344.50
2022-09-01T01:10:12.299Z,102339.66
2022-09-01T01:12:45.226Z,102337.41
2022-09-01T01:15:18.440Z,102345.41
2022-09-01T01:17:50.425Z,102339.91
2022-09-01T01:20:45.057Z,102341.81
2022-09-01T01:23:29.650Z,102352.56
2022-09-01T01:26:01.606Z,102345.41
2022-09-01T01:28:37.169Z,102347.09
2022-09-01T01:31:12.687Z,102347.09
2022-09-01T01:33:47.243Z,102343.50
2022-09-01T01:36:21.588Z,102345.41
2022-09-01T01:38:55.570Z,102349.22
2022-09-01T01:41:29.965Z,102346.66
2022-09-01T01:44:04.278Z,102350.00
2022-09-01T01:46:44.058Z,102351.03
2022-09-01T01:49:19.931Z,102349.16
2022-09-01T01:51:56.400Z,102350.00
2022-09-01T01:54:32.368Z,102353.78
2022-09-01T01:57:04.705Z,102348.28
2022-09-01T01:59:40.450Z,102350.84
2022-09-01T02:02:12.966Z,102344.72
2022-09-01T02:04:45.023Z,102351.03
2022-09-01T02:07:18.098Z,102344.91
2022-09-01T02:09:50.162Z,102344.25
2022-09-01T02:12:25.142Z,102349.06
2022-09-01T02:14:57.333Z,102345.72
2022-09-01T02:17:29.665Z,102354.97
2022-09-01T02:20:01.722Z,102349.88
2022-09-01T02:22:34.133Z,102348.19
2022-09-01T02:25:06.987Z,102349.41
2022-09-01T02:27:39.874Z,102354.91
2022-09-01T02:30:12.861Z,102350.69
2022-09-01T02:32:45.562Z,102352.94
2022-09-01T02:35:19.952Z,102349.75
2022-09-01T02:37:55.599Z,102344.22
2022-09-01T02:40:31.335Z,102345.88
2022-09-01T02:43:03.280Z,102348.34
2022-09-01T02:45:37.267Z,102352.47
2022-09-01T02:48:10.481Z,102347.41
2022-09-01T02:50:42.829Z,102344.69
2022-09-01T02:53:15.492Z,102345.72
2022-09-01T02:55:48.706Z,102342.53
2022-09-01T02:58:22.910Z,102343.56
2022-09-01T03:00:59.115Z,102342.72
2022-09-01T03:03:31.376Z,102346.31
2022-09-01T03:06:05.097Z,102346.13
2022-09-01T03:08:39.630Z,102345.72
2022-09-01T03:11:13.249Z,102341.94
2022-09-01T03:13:45.833Z,102344.69
2022-09-01T03:16:18.983Z,102346.56
2022-09-01T03:18:51.981Z,102338.53
2022-09-01T03:21:25.080Z,102354.97
2022-09-01T03:23:58.140Z,102348.63
2022-09-01T03:26:31.459Z,102345.09
2022-09-01T03:29:04.265Z,102349.50
2022-09-01T03:31:37.248Z,102338.53
2022-09-01T03:34:11.077Z,102342.34
2022-09-01T03:36:50.868Z,102343.38
2022-09-01T03:39:40.824Z,102337.25
2022-09-01T03:42:19.430Z,102340.16
2022-09-01T03:44:53.294Z,102339.34
2022-09-01T03:47:25.457Z,102341.41
2022-09-01T03:49:59.910Z,102342.25
2022-09-01T03:52:31.838Z,102335.09
2022-09-01T03:55:03.918Z,102336.97
2022-09-01T03:57:42.425Z,102339.72
2022-09-01T04:00:21.000Z,102342.66
2022-09-01T04:02:57.586Z,102335.28
2022-09-01T04:05:33.908Z,102340.97
2022-09-01T04:08:10.877Z,102333.72
2022-09-01T04:10:54.465Z,102336.00
2022-09-01T04:13:30.396Z,102336.84
2022-09-01T04:16:02.776Z,102336.19
2022-09-01T04:18:34.981Z,102339.94
2022-09-01T04:21:08.111Z,102335.53
2022-09-01T04:23:41.047Z,102336.19
2022-09-01T04:26:14.888Z,102337.03
2022-09-01T04:28:49.470Z,102336.19
2022-09-01T04:31:22.108Z,102339.94
2022-09-01T04:33:55.658Z,102338.91
2022-09-01T04:36:31.710Z,102341.66
2022-09-01T04:39:08.813Z,102332.41
2022-09-01T04:41:49.358Z,102334.09
2022-09-01T04:44:22.228Z,102334.09
2022-09-01T04:46:56.738Z,102331.19
2022-09-01T04:49:33.731Z,102341.91
2022-09-01T04:52:05.904Z,102337.13
2022-09-01T04:54:38.959Z,102332.50
2022-09-01T04:57:11.526Z,102339.44
2022-09-01T04:59:43.655Z,102344.72
2022-09-01T05:02:16.984Z,102343.88
2022-09-01T05:04:50.054Z,102346.63
2022-09-01T05:07:23.634Z,102340.47
2022-09-01T05:10:01.099Z,102347.03
2022-09-01T05:13:09.882Z,102342.94
2022-09-01T05:15:46.584Z,102344.00
2022-09-01T05:18:24.568Z,102347.78
2022-09-01T05:20:57.556Z,102344.38
2022-09-01T05:23:32.034Z,102351.56
2022-09-01T05:26:14.633Z,102354.28
2022-09-01T05:28:53.980Z,102346.28
2022-09-01T05:31:28.186Z,102359.75
2022-09-01T05:34:01.879Z,102357.69
2022-09-01T05:36:33.997Z,102354.75
2022-09-01T05:39:07.690Z,102359.00
2022-09-01T05:41:41.083Z,102358.81
2022-09-01T05:44:14.132Z,102354.16
2022-09-01T05:46:47.533Z,102353.13
2022-09-01T05:49:19.736Z,102354.16
2022-09-01T05:51:59.015Z,102359.44
2022-09-01T05:54:33.886Z,102358.22
2022-09-01T05:57:30.191Z,102363.69
2022-09-01T05:59:59.774Z,102360.56
2022-09-01T06:02:33.797Z,102360.56
2022-09-01T06:05:07.174Z,102365.84
2022-09-01T06:07:42.736Z,102361.00
2022-09-01T06:10:16.100Z,102364.22
2022-09-01T06:12:48.832Z,102368.00
2022-09-01T06:15:22.836Z,102362.97
2022-09-01T06:17:58.789Z,102363.44
2022-09-01T06:20:31.717Z,102363.91
2022-09-01T06:23:03.679Z,102368.78
2022-09-01T06:25:39.505Z,102369.06
2022-09-01T06:28:13.573Z,102366.78
2022-09-01T06:30:46.393Z,102360.25
2022-09-01T06:33:19.411Z,102364.47
2022-09-01T06:35:55.587Z,102366.00
2022-09-01T06:38:29.392Z,102363.69
2022-09-01T06:41:04.377Z,102372.56
2022-09-01T06:43:37.002Z,102367.53
2022-09-01T06:46:09.836Z,102373.47
2022-09-01T06:48:46.558Z,102371.41
2022-09-01T06:51:22.581Z,102378.56
2022-09-01T06:53:59.394Z,102374.38
2022-09-01T06:56:38.923Z,102373.97
2022-09-01T06:59:17.923Z,102366.88
2022-09-01T07:02:01.424Z,102369.19
2022-09-01T07:08:17.887Z,102374.44
2022-09-01T07:14:22.252Z,102375.22
2022-09-01T07:19:48.776Z,102374.94
2022-09-01T07:23:02.631Z,102381.69
2022-09-01T07:25:13.413Z,102380.41
2022-09-01T07:28:04.023Z,102379.75
2022-09-01T07:30:42.690Z,102373.41
2022-09-01T07:42:31.370Z,102370.41
2022-09-01T07:45:30.218Z,102382.84
2022-09-01T07:48:07.365Z,102380.72
2022-09-01T07:53:48.249Z,102385.81
2022-09-01T07:56:22.097Z,102391.75
2022-09-01T07:58:55.672Z,102390.94
2022-09-01T08:01:28.952Z,102390.13
2022-09-01T08:04:02.320Z,102397.75
2022-09-01T08:06:38.623Z,102389.38
2022-09-01T08:09:25.176Z,102390.41
2022-09-01T08:12:06.257Z,102396.13
2022-09-01T08:14:43.871Z,102389.38
2022-09-01T08:17:17.182Z,102399.53
2022-09-01T08:19:51.059Z,102385.13
2022-09-01T08:22:40.460Z,102383.88
2022-09-01T08:25:24.788Z,102396.53
2022-09-01T08:28:00.551Z,102395.72
2022-09-01T08:30:33.177Z,102390.41
2022-09-01T08:33:12.931Z,102394.44
2022-09-01T08:35:49.842Z,102391.88
2022-09-01T08:38:23.423Z,102392.09
2022-09-01T08:40:57.801Z,102391.84
2022-09-01T08:44:10.837Z,102390.16
2022-09-01T08:46:44.001Z,102395.22
2022-09-01T08:49:26.252Z,102386.75
2022-09-01T08:52:32.601Z,102385.28
2022-09-01T08:55:22.235Z,102382.13
2022-09-01T08:57:59.859Z,102387.63
2022-09-01T09:00:43.647Z,102378.28
2022-09-01T09:03:49.689Z,102388.44
2022-09-01T09:06:51.417Z,102385.88
2022-09-01T09:09:33.486Z,102379.97
2022-09-01T09:12:13.428Z,102383.97
2022-09-01T09:14:45.321Z,102381.63
2022-09-01T09:17:20.883Z,102372.06
2022-09-01T09:19:53.773Z,102367.22
2022-09-01T09:22:25.750Z,102362.94
2022-09-01T09:25:12.644Z,102373.53
2022-09-01T09:27:47.705Z,102365.88
2022-09-01T09:30:31.430Z,102365.47
2022-09-01T09:33:47.654Z,102370.53
2022-09-01T09:36:25.366Z,102367.97
2022-09-01T09:39:12.658Z,102368.16
2022-09-01T09:42:04.295Z,102364.72
2022-09-01T09:44:44.142Z,102366.63
2022-09-01T09:47:44.723Z,102366.59
2022-09-01T09:50:22.998Z,102365.06
2022-09-01T09:53:35.928Z,102364.44
2022-09-01T09:56:19.581Z,102354.66
2022-09-01T09:58:52.667Z,102360.56
2022-09-01T10:01:26.065Z,102348.25
2022-09-01T10:04:00.540Z,102351.41
2022-09-01T10:06:38.312Z,102339.72
2022-09-01T10:09:34.922Z,102338.88
2022-09-01T10:12:07.070Z,102333.34
2022-09-01T10:14:53.386Z,102338.44
2022-09-01T10:17:35.975Z,102336.28
2022-09-01T10:20:11.646Z,102337.97
2022-09-01T10:22:48.398Z,102323.75
2022-09-01T10:25:29.473Z,102326.06
2022-09-01T10:28:24.324Z,102324.75
2022-09-01T10:30:59.069Z,102317.50
2022-09-01T10:33:31.291Z,102321.66
2022-09-01T10:36:07.853Z,102326.28
2022-09-01T10:38:39.961Z,102314.34
2022-09-01T10:41:59.833Z,102314.69
2022-09-01T10:44:38.995Z,102321.41
2022-09-01T10:47:30.382Z,102316.38
2022-09-01T10:50:09.919Z,102310.44
2022-09-01T10:52:43.304Z,102316.13
2022-09-01T10:55:24.970Z,102311.03
2022-09-01T10:58:09.535Z,102311.13
2022-09-01T11:01:40.297Z,102311.84
2022-09-01T11:03:57.170Z,102311.19
2022-09-01T11:06:41.696Z,102308.44
2022-09-01T11:09:30.523Z,102313.56
2022-09-01T11:12:29.288Z,102308.09
2022-09-01T11:15:07.056Z,102310.06
2022-09-01T11:17:54.420Z,102306.00
2022-09-01T11:20:27.768Z,102310.50
2022-09-01T11:23:03.739Z,102302.34
2022-09-01T11:25:39.640Z,102297.13
2022-09-01T11:28:15.426Z,102293.69
2022-09-01T11:30:55.169Z,102292.56
2022-09-01T11:34:04.486Z,102296.56
2022-09-01T11:36:47.240Z,102298.81
2022-09-01T11:39:23.236Z,102294.88
2022-09-01T11:42:16.713Z,102297.53
2022-09-01T11:44:58.997Z,102289.91
2022-09-01T11:47:38.177Z,102283.22
2022-09-01T11:50:19.173Z,102278.66
2022-09-01T11:53:00.121Z,102277.63
2022-09-01T11:55:40.103Z,102264.03
2022-09-01T11:58:31.825Z,102267.44
2022-09-01T12:01:14.635Z,102273.00
2022-09-01T12:03:48.784Z,102264.06
2022-09-01T12:06:29.748Z,102272.56
2022-09-01T12:09:04.933Z,102273.00
2022-09-01T12:11:36.957Z,102275.00
2022-09-01T12:14:12.030Z,102264.44
2022-09-01T12:16:44.519Z,102272.28
2022-09-01T12:19:28.606Z,102265.34
2022-09-01T12:22:07.609Z,102262.25
2022-09-01T12:24:45.686Z,102256.13
2022-09-01T12:27:18.262Z,102250.06
2022-09-01T12:29:50.988Z,102249.25
2022-09-01T12:32:22.918Z,102249.78
2022-09-01T12:35:18.185Z,102245.53
2022-09-01T12:37:52.744Z,102240.25
2022-09-01T12:40:35.120Z,102241.81
2022-09-01T12:43:07.874Z,102229.84
2022-09-01T12:45:45.719Z,102235.31
2022-09-01T12:48:33.478Z,102228.66
2022-09-01T12:51:26.543Z,102229.22
2022-09-01T12:54:04.743Z,102220.06
2022-09-01T12:56:39.124Z,102228.06
2022-09-01T12:59:15.803Z,102221.25
2022-09-01T13:01:50.967Z,102221.47
2022-09-01T13:04:27.209Z,102226.53
2022-09-01T13:07:05.464Z,102225.66
2022-09-01T13:09:38.349Z,102225.00
2022-09-01T13:12:12.585Z,102211.84
2022-09-01T13:14:44.550Z,102213.91
2022-09-01T13:17:17.008Z,102213.81
2022-09-01T13:19:48.969Z,102218.91
2022-09-01T13:22:21.700Z,102210.13
2022-09-01T13:24:53.650Z,102215.97
2022-09-01T13:27:25.733Z,102204.56
2022-09-01T13:29:59.514Z,102194.84
2022-09-01T13:32:31.957Z,102199.47
2022-09-01T13:35:04.694Z,102196.06
2022-09-01T13:37:36.678Z,102195.97
2022-09-01T13:40:15.683Z,102198.84
2022-09-01T13:42:50.725Z,102189.75
2022-09-01T13:45:28.644Z,102197.63
2022-09-01T13:48:17.314Z,102190.63
2022-09-01T13:53:44.951Z,102194.69
2022-09-01T13:56:16.915Z,102191.66
2022-09-01T13:58:48.878Z,102186.91
2022-09-01T14:01:24.243Z,102186.78
2022-09-01T14:04:00.184Z,102192.41
2022-09-01T14:06:33.269Z,102196.41
2022-09-01T14:09:05.223Z,102197.00
2022-09-01T14:11:37.680Z,102195.31
2022-09-01T14:14:09.761Z,102188.28
2022-09-01T14:16:41.955Z,102189.34
2022-09-01T14:19:13.946Z,102184.78
2022-09-01T14:21:47.298Z,102179.81
2022-09-01T14:24:21.131Z,102179.78
2022-09-01T14:26:53.605Z,102178.53
2022-09-01T14:29:25.662Z,102174.41
2022-09-01T14:31:58.579Z,102181.91
2022-09-01T14:34:30.994Z,102180.88
2022-09-01T14:37:04.073Z,102173.78
2022-09-01T14:39:36.001Z,102170.28
2022-09-01T14:42:10.068Z,102166.75
2022-09-01T14:44:43.609Z,102163.75
2022-09-01T14:47:19.892Z,102157.41
2022-09-01T14:49:53.839Z,102161.69
2022-09-01T14:52:25.868Z,102155.09
2022-09-01T14:54:59.487Z,102161.22
2022-09-01T14:57:37.789Z,102149.19
2022-09-01T15:00:12.450Z,102153.78
2022-09-01T15:02:45.302Z,102139.50
2022-09-01T15:05:17.244Z,102143.88
2022-09-01T15:07:49.995Z,102130.53
2022-09-01T15:10:25.848Z,102133.22
2022-09-01T15:13:00.213Z,102134.81
2022-09-01T15:15:32.986Z,102135.75
2022-09-01T15:18:05.109Z,102135.06
2022-09-01T15:20:48.497Z,102136.63
2022-09-01T15:23:25.857Z,102139.31
2022-09-01T15:25:58.403Z,102134.44
2022-09-01T15:28:30.604Z,102132.59
2022-09-01T15:31:03.683Z,102128.88
2022-09-01T15:33:36.494Z,102135.44
2022-09-01T15:36:16.035Z,102132.56
2022-09-01T15:38:48.056Z,102130.88
2022-09-01T15:41:22.125Z,102135.50
2022-09-01T15:43:54.093Z,102136.72
2022-09-01T15:46:32.017Z,102130.13
2022-09-01T15:49:06.608Z,102128.81
2022-09-01T15:51:45.561Z,102124.53
2022-09-01T15:54:19.931Z,102124.44
2022-09-01T15:56:51.813Z,102127.19
2022-09-01T15:59:23.859Z,102128.16
2022-09-01T16:01:56.252Z,102120.38
2022-09-01T16:04:28.392Z,102125.91
2022-09-01T16:07:00.622Z,102121.31
2022-09-01T16:09:32.986Z,102124.84
2022-09-01T16:12:06.524Z,102112.81
2022-09-01T16:14:40.501Z,102115.09
2022-09-01T16:17:20.508Z,102110.19
2022-09-01T16:19:56.516Z,102117.53
2022-09-01T16:22:37.013Z,102116.00
2022-09-01T16:25:22.919Z,102110.44
2022-09-01T16:27:56.237Z,102108.56
2022-09-01T16:30:30.560Z,102112.75
2022-09-01T16:33:04.288Z,102114.56
2022-09-01T16:36:19.209Z,102116.84
2022-09-01T16:39:01.397Z,102108.91
2022-09-01T16:41:45.235Z,102115.88
2022-09-01T16:44:17.326Z,102116.34
2022-09-01T16:47:02.630Z,102112.38
2022-09-01T16:49:48.392Z,102114.78
2022-09-01T16:52:31.219Z,102121.84
2022-09-01T16:55:32.751Z,102112.59
2022-09-01T16:58:26.046Z,102119.88
2022-09-01T17:01:30.255Z,102104.16
2022-09-01T17:04:02.242Z,102115.09
2022-09-01T17:06:48.436Z,102116.63
2022-09-01T17:09:54.089Z,102114.94
2022-09-01T17:12:32.106Z,102116.50
2022-09-01T17:15:12.898Z,102115.66
2022-09-01T17:18:05.365Z,102111.22
2022-09-01T17:20:42.035Z,102115.03
2022-09-01T17:23:30.025Z,102122.13
2022-09-01T17:26:05.725Z,102123.28
2022-09-01T17:28:55.343Z,102119.31
2022-09-01T17:31:49.311Z,102114.84
2022-09-01T17:34:46.945Z,102127.44
2022-09-01T17:37:40.019Z,102129.06
2022-09-01T17:40:23.874Z,102131.53
2022-09-01T17:43:06.233Z,102138.19
2022-09-01T17:45:45.755Z,102134.44
2022-09-01T17:48:31.333Z,102136.22
2022-09-01T17:51:09.000Z,102147.72
2022-09-01T17:53:53.852Z,102133.31
2022-09-01T17:56:46.725Z,102144.81
2022-09-01T17:59:34.014Z,102138.44
2022-09-01T18:02:24.727Z,102140.59
2022-09-01T18:05:05.927Z,102139.16
2022-09-01T18:08:00.291Z,102144.25
2022-09-01T18:10:44.560Z,102137.31
2022-09-01T18:13:51.898Z,102145.41
2022-09-01T18:16:32.043Z,102147.16
2022-09-01T18:19:11.830Z,102140.91
2022-09-01T18:22:01.729Z,102147.06
2022-09-01T18:24:52.134Z,102143.56
2022-09-01T18:27:26.081Z,102151.19
2022-09-01T18:30:01.294Z,102154.88
2022-09-01T18:32:41.376Z,102156.81
2022-09-01T18:35:29.047Z,102154.97
2022-09-01T18:38:16.094Z,102160.09
2022-09-01T18:41:08.193Z,102166.28
2022-09-01T18:43:45.448Z,102150.66
2022-09-01T18:46:25.417Z,102157.50
2022-09-01T18:49:35.177Z,102160.94
2022-09-01T18:52:37.113Z,102166.88
2022-09-01T18:55:34.773Z,102160.59
2022-09-01T18:58:12.500Z,102165.06
2022-09-01T19:00:54.677Z,102164.91
2022-09-01T19:03:35.142Z,102162.59
2022-09-01T19:06:33.169Z,102162.44
2022-09-01T19:09:14.495Z,102162.84
2022-09-01T19:11:46.467Z,102168.81
2022-09-01T19:14:33.552Z,102166.72
2022-09-01T19:17:25.827Z,102172.63
2022-09-01T19:20:03.057Z,102182.78
2022-09-01T19:22:56.492Z,102173.91
2022-09-01T19:25:38.095Z,102171.38
2022-09-01T19:28:25.165Z,102174.34
2022-09-01T19:31:07.336Z,102175.63
2022-09-01T19:33:43.154Z,102175.25
2022-09-01T19:36:25.650Z,102173.97
2022-09-01T19:38:58.419Z,102173.38
2022-09-01T19:41:35.319Z,102174.03
2022-09-01T19:44:57.570Z,102175.75
2022-09-01T19:47:38.266Z,102172.16
2022-09-01T19:50:31.166Z,102172.03
2022-09-01T19:53:26.489Z,102164.44
2022-09-01T19:56:21.705Z,102170.78
2022-09-01T19:59:19.145Z,102167.00
2022-09-01T20:01:57.660Z,102169.56
2022-09-01T20:04:47.648Z,102172.97
2022-09-01T20:07:31.799Z,102166.41
2022-09-01T20:10:29.460Z,102158.16
2022-09-01T20:13:16.315Z,102171.28
2022-09-01T20:15:53.712Z,102171.06
2022-09-01T20:18:39.186Z,102174.22
2022-09-01T20:21:20.882Z,102174.69
2022-09-01T20:23:58.366Z,102166.25
2022-09-01T20:26:32.700Z,102164.53
2022-09-01T20:29:12.876Z,102168.78
2022-09-01T20:31:46.747Z,102171.97
2022-09-01T20:34:25.228Z,102172.56
2022-09-01T20:37:10.595Z,102168.38
2022-09-01T20:40:27.050Z,102171.34
2022-09-01T20:43:22.849Z,102171.75
2022-09-01T20:45:54.997Z,102169.66
2022-09-01T20:48:27.858Z,102180.63
2022-09-01T20:51:11.725Z,102175.56
2022-09-01T20:54:21.331Z,102175.78
2022-09-01T20:57:21.339Z,102177.47
2022-09-01T20:59:59.041Z,102178.75
2022-09-01T21:02:43.051Z,102177.25
2022-09-01T21:05:21.236Z,102189.28
2022-09-01T21:08:20.934Z,102183.38
2022-09-01T21:11:20.252Z,102185.25
2022-09-01T21:14:05.069Z,102181.66
2022-09-01T21:16:56.669Z,102179.78
2022-09-01T21:19:53.597Z,102190.94
2022-09-01T21:22:27.717Z,102182.72
2022-09-01T21:24:59.823Z,102178.28
2022-09-01T21:27:37.543Z,102189.06
2022-09-01T21:30:12.282Z,102185.25
2022-09-01T21:32:44.398Z,102186.94
2022-09-01T21:35:19.471Z,102191.19
2022-09-01T21:37:51.831Z,102180.41
2022-09-01T21:40:26.598Z,102185.69
2022-09-01T21:43:04.457Z,102178.09
2022-09-01T21:45:37.988Z,102177.81
2022-09-01T21:48:10.076Z,102178.47
2022-09-01T21:50:42.447Z,102176.16
2022-09-01T21:53:14.611Z,102177.59
2022-09-01T21:55:46.925Z,102176.31
2022-09-01T21:58:18.829Z,102178.66
2022-09-01T22:00:51.222Z,102179.69
2022-09-01T22:03:24.210Z,102182.63
2022-09-01T22:05:56.063Z,102180.97
2022-09-01T22:08:28.330Z,102170.81
2022-09-01T22:11:00.573Z,102188.31
2022-09-01T22:13:32.602Z,102184.91
2022-09-01T22:16:05.041Z,102180.50
2022-09-01T22:18:36.905Z,102182.59
2022-09-01T22:21:10.018Z,102179.44
2022-09-01T22:23:42.728Z,102179.84
2022-09-01T22:26:28.292Z,102180.06
2022-09-01T22:29:02.207Z,102180.47
2022-09-01T22:31:37.073Z,102186.38
2022-09-01T22:34:09.039Z,102185.09
2022-09-01T22:36:44.329Z,102177.91
2022-09-01T22:39:17.525Z,102185.47
2022-09-01T22:41:49.441Z,102187.38
2022-09-01T22:44:21.855Z,102180.41
2022-09-01T22:46:53.791Z,102188.00
2022-09-01T22:49:25.771Z,102182.09
2022-09-01T22:51:57.669Z,102183.34
2022-09-01T22:54:29.939Z,102180.38
2022-09-01T22:57:02.345Z,102176.13
2022-09-01T22:59:34.325Z,102172.31
2022-09-01T23:02:07.027Z,102175.47
2022-09-01T23:04:40.828Z,102170.56
2022-09-01T23:07:12.783Z,102176.25
2022-09-01T23:09:44.659Z,102171.81
2022-09-01T23:12:16.635Z,102168.44
2022-09-01T23:14:48.573Z,102170.53
2022-09-01T23:17:20.400Z,102166.09
2022-09-01T23:19:52.673Z,102161.88
2022-09-01T23:22:24.658Z,102172.00
2022-09-01T23:24:56.505Z,102165.00
2022-09-01T23:27:28.309Z,102161.66
2022-09-01T23:30:00.283Z,102157.41
2022-09-01T23:32:32.257Z,102161.41
2022-09-01T23:35:05.045Z,102159.91
2022-09-01T23:37:37.171Z,102158.63
2022-09-01T23:40:10.400Z,102158.81
2022-09-01T23:42:42.845Z,102149.13
2022-09-01T23:45:14.775Z,102155.84
2022-09-01T23:47:46.641Z,102156.91
2022-09-01T23:50:18.475Z,102147.63
2022-09-01T23:52:51.085Z,102141.91
2022-09-01T23:55:23.025Z,102142.28
2022-09-01T23:57:54.886Z,102138.69
